Terminal Aerodrome Forecast
Issued by NWS Austin/San Antonio, TX

Home | Current Version | Previous Version | Text Only | Print | Product List | Glossary On
Versions: 1 2 3 4 5 6 7 8 9 10 11 12 13 14 15 16
000
FTUS44 KEWX 162012 AAA
TAFSAT
TAF AMD
KSAT 162012Z 1620/1724 18005KT P6SM -RA OVC035
     FM162100 09005KT 5SM RA OVC025
     FM170000 03004KT 3SM -RA BR OVC008
     FM170300 05006KT 2SM BR OVC006
     FM171100 31002KT 1SM BR OVC002
     FM171700 19004KT P6SM OVC025=

USA.gov is the U.S. government's official web portal to all federal, state and local government web resources and services.